Time;durP1;ratioP1;P1;durP2;ratioP2;P2;SDS_P1;SDS_P2;PMS_P1;PMS_P2;Temp;Humidity;BMP_temperature;BMP_pressure;BME280_temperature;BME280_humidity;BME280_pressure;Samples;Min_cycle;Max_cycle;Signal;HPM_P1;HPM_P2
2021/07/03 00:00:15;;;;;;;6.70;5.53;;;16.10;99.90;;;;;;5101029;28;20202;-49
2021/07/03 00:02:41;;;;;;;8.60;6.60;;;16.10;99.90;;;;;;5104441;27;20247;-52
2021/07/03 00:05:09;;;;;;;6.33;5.80;;;16.00;99.90;;;;;;5099367;28;20700;-48
2021/07/03 00:07:37;;;;;;;7.97;6.47;;;16.00;99.90;;;;;;5104662;28;20609;-48
2021/07/03 00:10:05;;;;;;;6.80;6.10;;;15.90;99.90;;;;;;5081924;28;20190;-58
2021/07/03 00:12:31;;;;;;;8.83;6.93;;;15.90;99.90;;;;;;5101028;28;20217;-51
2021/07/03 00:14:58;;;;;;;8.63;7.43;;;15.90;99.90;;;;;;5102383;28;20205;-53
2021/07/03 00:17:25;;;;;;;9.00;8.10;;;15.90;99.90;;;;;;5102711;28;20197;-46
2021/07/03 00:19:51;;;;;;;9.03;7.57;;;15.90;99.90;;;;;;5097045;28;20268;-55
2021/07/03 00:22:18;;;;;;;11.37;7.23;;;15.80;99.90;;;;;;5100721;28;20221;-54
2021/07/03 00:24:46;;;;;;;8.20;7.40;;;15.80;99.90;;;;;;5089775;28;20225;-46
2021/07/03 00:27:12;;;;;;;7.83;6.50;;;15.80;99.90;;;;;;5090626;28;20197;-52
2021/07/03 00:29:39;;;;;;;8.30;7.53;;;15.70;99.90;;;;;;5103493;28;20197;-45
2021/07/03 00:32:06;;;;;;;9.70;7.60;;;15.70;99.90;;;;;;5100239;28;20209;-55
2021/07/03 00:34:33;;;;;;;9.43;7.20;;;15.60;99.90;;;;;;5102200;28;20693;-46
2021/07/03 00:37:00;;;;;;;8.63;7.20;;;15.60;99.90;;;;;;5101353;28;20204;-55
2021/07/03 00:39:27;;;;;;;8.37;7.33;;;15.50;99.90;;;;;;5102609;28;20189;-49
2021/07/03 00:41:55;;;;;;;8.70;7.57;;;15.50;99.90;;;;;;5077057;28;20722;-52
2021/07/03 00:44:26;;;;;;;9.07;8.00;;;15.50;99.90;;;;;;5101468;28;20209;-49
2021/07/03 00:46:54;;;;;;;9.43;7.57;;;15.50;99.90;;;;;;5102638;28;20209;-54
2021/07/03 00:49:22;;;;;;;9.80;8.33;;;15.40;99.90;;;;;;5100065;28;20189;-46
2021/07/03 00:51:49;;;;;;;9.37;7.67;;;15.40;99.90;;;;;;5101138;28;20255;-55
2021/07/03 00:54:15;;;;;;;11.60;8.07;;;15.40;99.90;;;;;;5098686;28;20197;-49
2021/07/03 00:56:42;;;;;;;9.23;7.93;;;15.40;99.90;;;;;;5087806;27;20216;-46
2021/07/03 00:59:10;;;;;;;11.50;8.07;;;15.40;99.90;;;;;;5090737;28;20259;-48
2021/07/03 01:01:37;;;;;;;11.27;8.63;;;15.40;99.90;;;;;;5103528;28;20678;-47
2021/07/03 01:04:05;;;;;;;10.20;8.40;;;15.30;99.90;;;;;;5099985;28;20690;-55
2021/07/03 01:06:32;;;;;;;11.93;8.87;;;15.20;99.90;;;;;;5102862;28;20226;-46
2021/07/03 01:08:59;;;;;;;10.27;8.20;;;15.20;99.90;;;;;;5099381;28;20678;-56
2021/07/03 01:11:27;;;;;;;8.57;7.67;;;15.20;99.90;;;;;;5087267;28;20216;-46
2021/07/03 01:13:55;;;;;;;11.77;9.03;;;15.10;99.90;;;;;;5093706;28;20197;-53
2021/07/03 01:16:23;;;;;;;8.80;7.97;;;15.10;99.90;;;;;;5099785;28;20274;-47
2021/07/03 01:18:50;;;;;;;11.17;9.03;;;15.10;99.90;;;;;;5097173;28;20197;-56
2021/07/03 01:21:17;;;;;;;9.80;8.43;;;15.00;99.90;;;;;;5097925;28;20679;-47
2021/07/03 01:23:46;;;;;;;8.80;7.90;;;15.00;99.90;;;;;;5102531;28;20229;-50
2021/07/03 01:26:13;;;;;;;9.43;8.53;;;15.00;99.90;;;;;;5083423;28;20425;-52
2021/07/03 01:28:42;;;;;;;10.97;9.30;;;15.00;99.90;;;;;;5093706;28;20229;-47
2021/07/03 01:31:10;;;;;;;8.67;7.87;;;14.90;99.90;;;;;;5098677;28;20210;-46
2021/07/03 01:33:37;;;;;;;10.10;8.43;;;14.90;99.90;;;;;;5102781;28;20228;-47
2021/07/03 01:36:04;;;;;;;9.27;8.23;;;14.90;99.90;;;;;;5099801;28;20279;-55
2021/07/03 01:38:32;;;;;;;9.60;8.67;;;14.90;99.90;;;;;;5100831;28;20201;-52
2021/07/03 01:41:18;;;;;;;12.30;8.73;;;14.80;99.90;;;;;;5098307;28;20247;-47
2021/07/03 01:43:50;;;;;;;10.40;8.30;;;14.80;99.90;;;;;;5078560;28;20217;-56
2021/07/03 01:46:17;;;;;;;9.37;8.20;;;14.80;99.90;;;;;;5099550;28;20209;-47
2021/07/03 01:48:44;;;;;;;11.40;8.80;;;14.70;99.90;;;;;;5095974;28;20217;-51
2021/07/03 01:51:19;;;;;;;9.40;8.47;;;14.70;99.90;;;;;;5095704;28;20381;-46
2021/07/03 01:53:46;;;;;;;9.63;8.43;;;14.70;99.90;;;;;;5101044;28;20193;-46
2021/07/03 01:56:13;;;;;;;9.90;9.00;;;14.70;99.90;;;;;;5097897;28;20778;-47
2021/07/03 01:58:41;;;;;;;10.67;9.47;;;14.70;99.90;;;;;;5088253;28;20572;-47
2021/07/03 02:01:15;;;;;;;9.93;8.93;;;14.60;99.90;;;;;;5092216;28;20435;-47
2021/07/03 02:03:43;;;;;;;12.27;9.33;;;14.60;99.90;;;;;;5101458;28;20221;-47
2021/07/03 02:06:16;;;;;;;10.50;8.97;;;14.60;99.90;;;;;;5091804;28;20451;-47
2021/07/03 02:08:43;;;;;;;11.37;8.83;;;14.50;99.90;;;;;;5101403;28;20216;-53
2021/07/03 02:11:15;;;;;;;11.07;9.30;;;14.40;99.90;;;;;;5097562;28;20567;-49
2021/07/03 02:13:48;;;;;;;11.17;9.90;;;14.40;99.90;;;;;;5101275;28;20197;-50
2021/07/03 02:16:20;;;;;;;9.77;8.77;;;14.40;99.90;;;;;;5089006;28;20389;-54
2021/07/03 02:18:47;;;;;;;10.83;9.20;;;14.40;99.90;;;;;;5102263;28;20262;-51
2021/07/03 02:21:20;;;;;;;11.90;10.30;;;14.40;99.90;;;;;;5098695;28;20799;-47
2021/07/03 02:23:47;;;;;;;11.37;9.17;;;14.40;99.90;;;;;;5100704;28;20714;-51
2021/07/03 02:26:14;;;;;;;10.97;9.87;;;14.30;99.90;;;;;;5096852;28;20676;-47
2021/07/03 02:28:41;;;;;;;10.17;9.27;;;14.40;99.90;;;;;;5104069;28;20208;-54
2021/07/03 02:31:21;;;;;;;11.63;9.40;;;14.40;99.90;;;;;;5087343;28;20293;-55
2021/07/03 02:33:55;;;;;;;9.83;8.80;;;14.30;99.90;;;;;;5104210;28;20181;-55
2021/07/03 02:36:23;;;;;;;11.07;9.77;;;14.30;99.90;;;;;;5102740;28;20390;-53
2021/07/03 02:38:51;;;;;;;11.53;9.40;;;14.30;99.90;;;;;;5103774;28;20216;-56
2021/07/03 02:41:24;;;;;;;10.00;9.07;;;14.30;99.90;;;;;;5098698;28;20437;-46
2021/07/03 02:43:52;;;;;;;9.80;8.57;;;14.30;99.90;;;;;;5103834;28;20588;-56
2021/07/03 02:46:20;;;;;;;12.20;10.07;;;14.30;99.90;;;;;;5089650;27;20336;-50
2021/07/03 02:48:47;;;;;;;10.67;9.67;;;14.20;99.90;;;;;;5103305;28;20560;-49
2021/07/03 02:51:14;;;;;;;10.17;9.17;;;14.20;99.90;;;;;;5100624;28;20759;-52
2021/07/03 02:53:40;;;;;;;10.47;9.40;;;14.20;99.90;;;;;;5105494;28;20225;-51
2021/07/03 02:56:08;;;;;;;12.00;9.60;;;14.10;99.90;;;;;;5099934;28;20449;-55
2021/07/03 02:58:37;;;;;;;10.30;9.20;;;14.10;99.90;;;;;;5105932;28;20253;-47
2021/07/03 03:01:04;;;;;;;10.57;9.47;;;14.10;99.90;;;;;;5088562;28;20226;-58
2021/07/03 03:03:33;;;;;;;9.53;8.57;;;14.10;99.90;;;;;;5104078;28;20225;-47
2021/07/03 03:06:02;;;;;;;10.13;9.17;;;14.00;99.90;;;;;;5100649;28;20208;-58
2021/07/03 03:08:29;;;;;;;10.47;8.97;;;14.00;99.90;;;;;;5103398;28;20219;-50
2021/07/03 03:10:57;;;;;;;11.10;9.37;;;14.00;99.90;;;;;;5102108;28;20236;-56
2021/07/03 03:13:24;;;;;;;9.60;8.60;;;14.00;99.90;;;;;;5102682;28;20610;-53
2021/07/03 03:15:52;;;;;;;8.97;8.07;;;13.90;99.90;;;;;;5099573;28;20208;-58
2021/07/03 03:18:19;;;;;;;12.50;10.27;;;13.90;99.90;;;;;;5091657;28;20375;-51
2021/07/03 03:20:48;;;;;;;11.20;10.10;;;14.00;99.90;;;;;;5103430;28;20261;-52
2021/07/03 03:23:16;;;;;;;11.53;9.93;;;14.00;99.90;;;;;;5099965;28;20213;-48
2021/07/03 03:25:43;;;;;;;13.70;10.77;;;14.00;99.90;;;;;;5103756;28;20201;-50
2021/07/03 03:28:10;;;;;;;15.07;11.67;;;14.00;99.90;;;;;;5099891;28;20281;-49
2021/07/03 03:30:38;;;;;;;14.00;12.40;;;14.00;99.90;;;;;;5103463;28;20205;-49
2021/07/03 03:33:10;;;;;;;14.37;12.20;;;14.00;99.90;;;;;;5084662;28;20532;-47
2021/07/03 03:35:36;;;;;;;15.60;11.53;;;14.10;99.90;;;;;;5102724;28;20194;-50
2021/07/03 03:38:08;;;;;;;15.67;13.37;;;14.00;99.90;;;;;;5101070;28;20193;-54
2021/07/03 03:40:36;;;;;;;15.10;13.60;;;14.00;99.90;;;;;;5104949;28;20208;-49
2021/07/03 03:43:04;;;;;;;17.43;13.57;;;14.10;99.90;;;;;;5100397;28;20696;-54
2021/07/03 03:45:34;;;;;;;16.40;14.13;;;14.10;99.90;;;;;;5103684;28;20232;-48
2021/07/03 03:48:04;;;;;;;15.40;13.77;;;14.20;99.90;;;;;;5091012;28;20205;-56
2021/07/03 03:50:39;;;;;;;15.27;13.63;;;14.20;99.90;;;;;;5101144;28;20205;-48
2021/07/03 03:53:06;;;;;;;14.83;13.23;;;14.20;99.90;;;;;;5100482;28;20288;-56
2021/07/03 03:55:35;;;;;;;14.77;12.87;;;14.20;99.90;;;;;;5104678;28;20612;-47
2021/07/03 03:58:04;;;;;;;15.57;13.33;;;14.20;99.90;;;;;;5101328;28;20585;-55
2021/07/03 04:00:32;;;;;;;15.40;13.80;;;14.20;99.90;;;;;;5103251;28;20201;-47
2021/07/03 04:03:02;;;;;;;15.83;13.67;;;14.20;99.90;;;;;;5101661;28;20228;-54
2021/07/03 04:05:36;;;;;;;15.80;14.17;;;14.30;99.90;;;;;;5090176;28;20287;-48
2021/07/03 04:08:04;;;;;;;14.73;13.23;;;14.30;99.90;;;;;;5099223;28;20250;-57
2021/07/03 04:10:31;;;;;;;15.50;13.77;;;14.30;99.90;;;;;;5103808;28;20239;-48
2021/07/03 04:12:59;;;;;;;15.53;13.07;;;14.40;99.90;;;;;;5102430;28;20203;-58
2021/07/03 04:15:26;;;;;;;16.07;13.07;;;14.40;99.90;;;;;;5103141;28;20259;-47
2021/07/03 04:17:52;;;;;;;16.77;14.20;;;14.50;99.90;;;;;;5100915;28;20197;-55
2021/07/03 04:20:19;;;;;;;19.53;14.03;;;14.50;99.90;;;;;;5085059;28;20201;-48
2021/07/03 04:22:46;;;;;;;16.33;14.07;;;14.60;99.90;;;;;;5103656;28;20287;-48
2021/07/03 04:25:15;;;;;;;15.63;13.53;;;14.60;99.90;;;;;;5099887;28;20213;-51
2021/07/03 04:27:43;;;;;;;16.57;13.40;;;14.60;99.90;;;;;;5102945;28;20201;-48
2021/07/03 04:30:12;;;;;;;16.00;14.07;;;14.60;99.90;;;;;;5099611;28;20199;-48
2021/07/03 04:32:43;;;;;;;15.87;13.73;;;14.60;99.90;;;;;;5097813;28;20240;-50
2021/07/03 04:35:12;;;;;;;16.47;13.87;;;14.60;99.90;;;;;;5078506;28;20205;-49
2021/07/03 04:37:38;;;;;;;17.33;14.27;;;14.60;99.90;;;;;;5101766;28;20197;-49
2021/07/03 04:40:08;;;;;;;17.23;14.80;;;14.60;99.90;;;;;;5100167;28;20203;-55
2021/07/03 04:42:35;;;;;;;15.80;14.13;;;14.60;99.90;;;;;;5104066;28;20225;-49
2021/07/03 04:45:01;;;;;;;15.37;13.60;;;14.60;99.90;;;;;;5099422;28;20228;-55
2021/07/03 04:47:33;;;;;;;14.67;13.13;;;14.60;99.90;;;;;;5104239;28;20200;-48
2021/07/03 04:50:00;;;;;;;18.83;14.57;;;14.70;99.90;;;;;;5090811;28;20201;-54
2021/07/03 04:52:28;;;;;;;15.37;13.73;;;14.70;99.90;;;;;;5097898;28;20263;-47
2021/07/03 04:54:55;;;;;;;18.10;13.67;;;14.70;99.90;;;;;;5102041;28;20672;-56
2021/07/03 04:57:21;;;;;;;18.90;14.20;;;14.70;99.90;;;;;;5100819;28;20881;-50
2021/07/03 04:59:48;;;;;;;16.10;14.00;;;14.80;99.90;;;;;;5103531;28;20201;-55
2021/07/03 05:02:15;;;;;;;15.83;13.73;;;14.80;99.90;;;;;;5099774;28;20354;-47
2021/07/03 05:04:45;;;;;;;16.37;14.30;;;14.80;99.90;;;;;;5101695;28;20285;-52
2021/07/03 05:07:11;;;;;;;16.00;14.00;;;14.90;99.90;;;;;;5083988;28;20239;-48
2021/07/03 05:09:47;;;;;;;14.43;12.90;;;14.90;99.90;;;;;;5101522;28;20201;-47
2021/07/03 05:12:13;;;;;;;17.63;12.33;;;14.90;99.90;;;;;;5099536;28;20562;-52
2021/07/03 05:14:40;;;;;;;14.40;12.63;;;15.00;99.90;;;;;;5103464;28;20193;-50
2021/07/03 05:17:07;;;;;;;15.70;12.63;;;15.00;99.90;;;;;;5099158;28;20209;-54
2021/07/03 05:19:33;;;;;;;16.93;13.13;;;15.10;99.90;;;;;;5103009;28;20554;-49
2021/07/03 05:22:01;;;;;;;12.53;11.17;;;15.10;99.90;;;;;;5090872;28;20213;-55
2021/07/03 05:24:28;;;;;;;14.53;11.30;;;15.20;99.90;;;;;;5098314;28;20582;-50
2021/07/03 05:26:55;;;;;;;12.93;10.87;;;15.30;99.90;;;;;;5101554;28;20201;-54
2021/07/03 05:29:21;;;;;;;13.77;10.83;;;15.30;99.90;;;;;;5093863;28;20823;-50
2021/07/03 05:31:48;;;;;;;14.63;10.73;;;15.40;99.90;;;;;;5089345;28;20225;-56
2021/07/03 05:34:15;;;;;;;12.63;9.93;;;15.50;99.90;;;;;;5093028;28;20177;-49
2021/07/03 05:36:45;;;;;;;13.10;9.40;;;15.50;99.90;;;;;;5102396;28;20208;-55
2021/07/03 05:39:13;;;;;;;13.20;9.97;;;15.60;99.90;;;;;;5079600;28;20217;-46
2021/07/03 05:41:39;;;;;;;13.03;10.03;;;15.60;99.90;;;;;;5100638;28;20239;-54
2021/07/03 05:44:06;;;;;;;10.83;8.97;;;15.60;99.90;;;;;;5098701;28;20213;-53
2021/07/03 05:46:33;;;;;;;12.57;10.30;;;15.70;99.90;;;;;;5102964;28;20216;-49
2021/07/03 05:49:00;;;;;;;10.30;9.23;;;15.70;99.90;;;;;;5093043;28;20388;-51
2021/07/03 05:51:27;;;;;;;12.10;9.20;;;15.80;99.90;;;;;;5097817;28;20225;-52
2021/07/03 05:53:54;;;;;;;10.73;8.40;;;15.90;99.90;;;;;;5078055;28;20197;-57
2021/07/03 05:56:22;;;;;;;8.70;7.53;;;16.00;99.90;;;;;;5102105;28;20207;-49
2021/07/03 05:58:49;;;;;;;11.07;6.73;;;16.10;99.90;;;;;;5098995;28;20193;-57
2021/07/03 06:01:16;;;;;;;10.40;6.70;;;16.10;99.90;;;;;;5101055;28;20454;-51
2021/07/03 06:03:43;;;;;;;10.20;7.00;;;16.20;99.90;;;;;;5100678;28;20697;-61
2021/07/03 06:06:09;;;;;;;7.23;5.77;;;16.20;99.90;;;;;;5094785;28;20909;-64
2021/07/03 06:08:36;;;;;;;7.67;6.50;;;16.30;99.90;;;;;;5096715;28;20229;-64
2021/07/03 06:11:03;;;;;;;11.13;5.90;;;16.40;99.90;;;;;;5087635;28;20926;-66
2021/07/03 06:13:31;;;;;;;7.20;6.37;;;16.40;99.90;;;;;;5103081;28;20662;-63
2021/07/03 06:15:57;;;;;;;7.87;6.10;;;16.50;99.90;;;;;;5102889;28;20208;-62
2021/07/03 06:18:25;;;;;;;6.67;6.07;;;16.50;99.90;;;;;;5105100;28;20197;-64
2021/07/03 06:20:52;;;;;;;9.00;6.87;;;16.50;99.90;;;;;;5087142;28;20225;-55
2021/07/03 06:23:19;;;;;;;9.40;6.10;;;16.50;99.90;;;;;;5105249;28;20583;-64
2021/07/03 06:25:46;;;;;;;8.93;6.00;;;16.50;99.90;;;;;;5090915;28;20236;-60
2021/07/03 06:28:13;;;;;;;6.37;4.90;;;16.50;99.90;;;;;;5100625;28;20320;-64
2021/07/03 06:30:41;;;;;;;6.87;5.17;;;16.40;99.90;;;;;;5105509;28;20201;-61
2021/07/03 06:33:08;;;;;;;7.97;5.40;;;16.40;99.90;;;;;;5098421;28;20393;-63
2021/07/03 06:35:35;;;;;;;8.70;5.47;;;16.50;99.90;;;;;;5106219;28;20557;-66
2021/07/03 06:38:03;;;;;;;5.90;5.23;;;16.50;99.90;;;;;;5089122;28;20201;-64
2021/07/03 06:40:30;;;;;;;8.37;5.10;;;16.40;99.90;;;;;;5089542;28;20209;-65
2021/07/03 06:42:57;;;;;;;6.53;4.80;;;16.50;99.90;;;;;;5100647;28;20224;-60
2021/07/03 06:45:23;;;;;;;5.00;4.50;;;16.60;99.90;;;;;;5106174;28;20205;-64
2021/07/03 06:47:51;;;;;;;5.20;4.53;;;16.60;99.90;;;;;;5102164;28;20196;-61
2021/07/03 06:50:18;;;;;;;4.67;4.17;;;16.60;99.90;;;;;;5104484;28;20305;-65
2021/07/03 06:52:44;;;;;;;5.70;4.60;;;16.70;99.90;;;;;;5093703;28;20238;-62
2021/07/03 06:55:11;;;;;;;4.17;3.87;;;16.70;99.90;;;;;;5103424;28;20197;-65
2021/07/03 06:57:38;;;;;;;4.13;3.70;;;16.80;99.90;;;;;;5091764;28;20280;-65
2021/07/03 07:00:06;;;;;;;4.90;4.40;;;16.80;99.90;;;;;;5095281;28;20795;-62
2021/07/03 07:02:33;;;;;;;4.33;3.70;;;16.80;99.90;;;;;;5092153;28;20217;-61
2021/07/03 07:05:01;;;;;;;5.57;3.57;;;16.90;99.90;;;;;;5089584;28;20206;-61
2021/07/03 07:07:27;;;;;;;4.37;3.93;;;16.90;99.90;;;;;;5095330;28;20603;-60
2021/07/03 07:09:54;;;;;;;4.03;3.73;;;16.90;99.90;;;;;;5092244;28;20220;-60
2021/07/03 07:12:20;;;;;;;6.93;4.33;;;17.00;99.90;;;;;;5082354;28;20237;-47
2021/07/03 07:14:47;;;;;;;4.47;3.60;;;17.00;99.90;;;;;;5102786;28;20185;-49
2021/07/03 07:17:14;;;;;;;5.30;3.63;;;17.00;99.90;;;;;;5101799;28;20415;-42
2021/07/03 07:19:40;;;;;;;6.63;3.83;;;17.00;99.90;;;;;;5104585;28;20242;-49
2021/07/03 07:22:08;;;;;;;5.63;3.83;;;17.00;99.90;;;;;;5101570;28;20427;-44
2021/07/03 07:24:35;;;;;;;4.97;3.63;;;17.10;99.90;;;;;;5098984;27;20752;-46
2021/07/03 07:27:02;;;;;;;5.17;4.03;;;17.10;99.90;;;;;;5085119;28;20408;-61
2021/07/03 07:29:29;;;;;;;5.03;3.90;;;17.20;99.90;;;;;;5104934;28;20201;-61
2021/07/03 07:31:55;;;;;;;4.07;3.67;;;17.20;99.90;;;;;;5099257;28;20908;-58
2021/07/03 07:34:22;;;;;;;4.67;3.77;;;17.20;99.90;;;;;;5104342;28;20205;-59
2021/07/03 07:36:48;;;;;;;5.90;4.10;;;17.30;99.90;;;;;;5102895;28;20205;-56
2021/07/03 07:39:16;;;;;;;5.17;3.70;;;17.40;99.90;;;;;;5103355;28;20190;-61
2021/07/03 07:41:43;;;;;;;3.77;3.47;;;17.50;99.90;;;;;;5093976;28;20217;-56
2021/07/03 07:44:10;;;;;;;3.60;3.30;;;17.70;99.90;;;;;;5086718;28;20203;-60
2021/07/03 07:46:37;;;;;;;3.63;3.27;;;17.80;99.90;;;;;;5104764;28;20217;-61
2021/07/03 07:49:05;;;;;;;6.13;3.27;;;17.80;99.90;;;;;;5100460;28;20543;-59
2021/07/03 07:51:32;;;;;;;3.43;3.13;;;17.80;99.90;;;;;;5104496;28;20251;-58
2021/07/03 07:53:58;;;;;;;3.30;2.80;;;17.80;99.90;;;;;;5096155;28;20195;-57
2021/07/03 07:56:26;;;;;;;8.50;3.67;;;17.90;99.90;;;;;;5095520;28;20206;-61
2021/07/03 07:58:53;;;;;;;3.80;3.40;;;17.90;99.90;;;;;;5090331;28;20519;-56
2021/07/03 08:01:19;;;;;;;3.60;3.27;;;17.90;99.90;;;;;;5095253;28;20209;-60
2021/07/03 08:03:46;;;;;;;4.17;3.07;;;17.90;99.90;;;;;;5094951;28;20196;-56
2021/07/03 08:06:13;;;;;;;4.47;2.90;;;18.10;99.90;;;;;;5102142;28;20213;-60
2021/07/03 08:08:39;;;;;;;4.03;3.20;;;18.30;99.90;;;;;;5104557;28;20207;-59
2021/07/03 08:11:06;;;;;;;3.90;3.10;;;18.30;99.90;;;;;;5101236;28;20717;-60
2021/07/03 08:13:34;;;;;;;3.17;2.97;;;18.30;99.90;;;;;;5095554;28;20212;-58
2021/07/03 08:16:01;;;;;;;4.83;3.20;;;18.20;99.90;;;;;;5080889;28;20190;-57
2021/07/03 08:18:28;;;;;;;3.20;2.90;;;18.30;99.90;;;;;;5092918;28;20201;-58
2021/07/03 08:20:54;;;;;;;5.17;3.40;;;18.30;99.90;;;;;;5101594;28;20225;-60
2021/07/03 08:23:21;;;;;;;3.47;3.17;;;18.30;99.90;;;;;;5096723;28;20194;-54
2021/07/03 08:25:48;;;;;;;3.83;3.30;;;18.40;99.90;;;;;;5099303;28;20224;-51
2021/07/03 08:28:15;;;;;;;4.13;3.27;;;18.40;99.90;;;;;;5093108;28;20206;-54
2021/07/03 08:30:44;;;;;;;5.40;3.43;;;18.40;99.90;;;;;;5085348;28;20209;-58
2021/07/03 08:33:11;;;;;;;3.30;3.00;;;18.50;99.90;;;;;;5102342;28;20189;-52
2021/07/03 08:35:37;;;;;;;5.00;3.40;;;18.50;99.90;;;;;;5100833;28;20197;-56
2021/07/03 08:38:04;;;;;;;4.03;3.27;;;18.50;99.90;;;;;;5093619;28;20221;-47
2021/07/03 08:40:31;;;;;;;3.10;2.90;;;18.50;99.90;;;;;;5100358;28;20204;-54
2021/07/03 08:42:58;;;;;;;4.10;3.13;;;18.50;99.90;;;;;;5102177;28;20200;-48
2021/07/03 08:45:24;;;;;;;3.57;3.20;;;18.60;99.90;;;;;;5095818;28;20213;-54
2021/07/03 08:47:52;;;;;;;4.00;3.30;;;18.60;99.90;;;;;;5085922;28;20236;-47
2021/07/03 08:50:19;;;;;;;3.77;2.77;;;18.70;99.90;;;;;;5103275;28;20208;-47
2021/07/03 08:52:46;;;;;;;3.30;2.70;;;18.90;99.90;;;;;;5099983;28;20244;-53
2021/07/03 08:55:19;;;;;;;3.03;2.83;;;18.90;99.90;;;;;;5097939;28;20197;-47
2021/07/03 08:57:49;;;;;;;4.17;3.07;;;18.70;99.90;;;;;;5099867;28;20200;-48
2021/07/03 09:00:21;;;;;;;3.70;3.00;;;18.70;99.90;;;;;;5092962;28;20202;-51
2021/07/03 09:02:47;;;;;;;2.83;2.63;;;18.60;99.90;;;;;;5073696;28;20450;-47
2021/07/03 09:05:21;;;;;;;3.13;2.83;;;18.50;99.90;;;;;;5102306;28;20586;-50
2021/07/03 09:07:48;;;;;;;2.93;2.73;;;18.50;99.90;;;;;;5099598;28;20201;-54
2021/07/03 09:10:21;;;;;;;3.00;2.60;;;18.50;99.90;;;;;;5080737;28;20379;-51
2021/07/03 09:12:51;;;;;;;3.00;2.73;;;18.50;99.90;;;;;;5099680;28;20228;-50
2021/07/03 09:15:20;;;;;;;3.00;2.60;;;18.60;99.90;;;;;;5103230;28;20197;-47
2021/07/03 09:17:53;;;;;;;3.53;2.03;;;18.60;99.90;;;;;;5076877;28;21809;-50
2021/07/03 09:20:30;;;;;;;2.60;2.40;;;18.80;99.90;;;;;;5102693;28;20193;-51
2021/07/03 09:23:07;;;;;;;2.03;1.93;;;19.00;99.90;;;;;;5098504;28;20437;-49
2021/07/03 09:25:35;;;;;;;3.47;2.40;;;19.00;99.90;;;;;;5090619;28;20641;-55
2021/07/03 09:28:08;;;;;;;2.73;2.10;;;19.10;99.90;;;;;;5099907;28;20208;-50
2021/07/03 09:30:34;;;;;;;2.87;2.60;;;19.40;99.90;;;;;;5094598;28;20205;-54
2021/07/03 09:33:01;;;;;;;5.07;2.63;;;19.50;99.90;;;;;;5086271;28;20574;-51
2021/07/03 09:35:29;;;;;;;2.50;2.30;;;19.50;99.90;;;;;;5101173;28;20551;-55
2021/07/03 09:38:04;;;;;;;2.73;2.43;;;19.50;99.90;;;;;;5099073;28;20771;-47
2021/07/03 09:40:32;;;;;;;2.73;2.43;;;19.50;99.90;;;;;;5091522;28;20200;-57
2021/07/03 09:43:09;;;;;;;2.70;2.43;;;19.40;99.90;;;;;;5093236;28;20280;-50
2021/07/03 09:45:36;;;;;;;2.70;2.50;;;19.30;99.90;;;;;;5094054;28;20224;-54
2021/07/03 09:48:08;;;;;;;2.77;2.20;;;19.30;99.90;;;;;;5092983;28;20370;-48
2021/07/03 09:50:39;;;;;;;4.03;2.27;;;19.30;99.90;;;;;;5083492;28;20221;-56
2021/07/03 09:53:06;;;;;;;2.43;2.07;;;19.40;99.90;;;;;;5097794;28;20212;-51
2021/07/03 09:55:33;;;;;;;2.50;2.07;;;19.50;99.90;;;;;;5086401;28;20683;-56
2021/07/03 09:58:00;;;;;;;2.60;2.40;;;19.40;99.90;;;;;;5114681;27;20651;-49
2021/07/03 10:00:27;;;;;;;3.77;2.80;;;19.40;99.90;;;;;;5094162;28;20281;-54
2021/07/03 10:02:54;;;;;;;3.30;2.40;;;19.40;99.90;;;;;;5093377;28;20475;-49
2021/07/03 10:05:22;;;;;;;2.70;2.43;;;19.30;99.90;;;;;;5087454;28;20217;-57
2021/07/03 10:07:59;;;;;;;2.80;2.60;;;19.40;99.90;;;;;;5099485;28;20289;-47
2021/07/03 10:10:28;;;;;;;2.73;2.50;;;19.40;99.90;;;;;;5101297;28;20202;-55
2021/07/03 10:13:00;;;;;;;5.53;3.10;;;19.40;99.90;;;;;;5089059;28;20474;-60
2021/07/03 10:15:28;;;;;;;5.03;3.43;;;19.40;99.90;;;;;;5101549;28;20212;-61
2021/07/03 10:18:06;;;;;;;3.87;2.67;;;19.50;99.90;;;;;;5095394;28;22927;-62
2021/07/03 10:20:33;;;;;;;2.70;2.50;;;19.50;99.90;;;;;;5084210;28;20209;-60
2021/07/03 10:23:01;;;;;;;3.20;2.90;;;19.60;99.90;;;;;;5102151;28;20189;-63
2021/07/03 10:25:33;;;;;;;2.90;2.70;;;19.60;99.90;;;;;;5100651;28;20197;-60
2021/07/03 10:28:01;;;;;;;2.73;2.53;;;19.70;99.90;;;;;;5085331;28;20202;-60
2021/07/03 10:30:30;;;;;;;2.97;2.70;;;19.80;99.90;;;;;;5089481;28;20899;-64
2021/07/03 10:32:58;;;;;;;2.40;2.20;;;19.80;99.90;;;;;;5100737;28;20220;-63
2021/07/03 10:35:26;;;;;;;3.10;2.60;;;19.70;99.90;;;;;;5076829;28;20205;-52
2021/07/03 10:37:54;;;;;;;2.27;2.13;;;19.80;99.90;;;;;;5099175;28;20655;-53
2021/07/03 10:40:25;;;;;;;2.20;2.10;;;19.80;99.90;;;;;;5091943;28;20302;-51
2021/07/03 10:42:54;;;;;;;2.40;2.20;;;19.80;99.90;;;;;;5083779;28;20221;-53
2021/07/03 10:45:23;;;;;;;2.60;2.40;;;19.90;99.90;;;;;;5093492;28;20217;-55
2021/07/03 10:47:51;;;;;;;2.37;1.97;;;19.90;99.90;;;;;;5101885;28;20208;-48
2021/07/03 10:50:19;;;;;;;2.37;2.17;;;19.90;99.90;;;;;;5078356;28;20205;-54
2021/07/03 10:52:46;;;;;;;3.33;2.13;;;19.80;99.90;;;;;;5105676;28;21039;-47
2021/07/03 10:55:13;;;;;;;3.70;2.30;;;19.80;99.90;;;;;;5102867;28;20201;-57
2021/07/03 10:57:45;;;;;;;2.10;2.00;;;19.80;99.90;;;;;;5093010;28;20196;-50
2021/07/03 11:00:14;;;;;;;3.70;2.17;;;19.80;99.90;;;;;;5102478;28;20197;-56
2021/07/03 11:02:41;;;;;;;2.27;2.00;;;19.90;99.90;;;;;;5105474;28;20587;-49
2021/07/03 11:05:12;;;;;;;4.43;2.53;;;19.90;99.90;;;;;;5098485;28;20562;-59
2021/07/03 11:07:39;;;;;;;2.60;2.30;;;19.90;99.90;;;;;;5087778;28;20575;-49
2021/07/03 11:10:08;;;;;;;2.17;1.97;;;19.90;99.90;;;;;;5102253;28;20303;-57
2021/07/03 11:12:48;;;;;;;2.23;2.10;;;20.00;99.90;;;;;;5096609;28;20298;-48
2021/07/03 11:15:17;;;;;;;3.97;1.90;;;19.90;99.90;;;;;;5094711;28;20204;-60
2021/07/03 11:17:44;;;;;;;2.90;2.60;;;20.10;99.90;;;;;;5105570;28;20195;-47
2021/07/03 11:20:22;;;;;;;2.20;2.00;;;20.20;99.90;;;;;;5096936;28;20552;-59
2021/07/03 11:22:50;;;;;;;3.23;2.10;;;20.10;99.90;;;;;;5073291;28;20304;-53
2021/07/03 11:25:25;;;;;;;1.87;1.77;;;20.00;99.90;;;;;;5099908;28;20201;-50
2021/07/03 11:27:54;;;;;;;2.10;1.90;;;20.00;99.90;;;;;;5088833;28;20210;-59
2021/07/03 11:30:23;;;;;;;2.93;2.17;;;20.10;99.90;;;;;;5097193;28;20213;-57
2021/07/03 11:32:51;;;;;;;2.60;1.70;;;20.20;99.90;;;;;;5097318;28;20293;-51
2021/07/03 11:35:18;;;;;;;2.00;1.90;;;20.20;99.90;;;;;;5105341;28;20194;-53
2021/07/03 11:37:45;;;;;;;2.00;1.90;;;20.30;99.90;;;;;;5067629;28;20208;-54
2021/07/03 11:40:13;;;;;;;4.83;2.10;;;20.40;99.90;;;;;;5094344;28;20200;-57
2021/07/03 11:42:44;;;;;;;2.00;1.90;;;20.60;99.90;;;;;;5102526;28;20305;-49
2021/07/03 11:45:14;;;;;;;2.37;1.80;;;20.80;99.90;;;;;;5087963;28;20254;-57
2021/07/03 11:47:43;;;;;;;2.47;2.37;;;20.80;99.90;;;;;;5103274;28;20614;-50
2021/07/03 11:50:14;;;;;;;1.97;1.87;;;20.60;99.90;;;;;;5096452;28;20554;-58
2021/07/03 11:52:42;;;;;;;2.10;1.90;;;20.50;99.90;;;;;;5098015;28;20233;-56
2021/07/03 11:55:11;;;;;;;1.97;1.60;;;20.50;99.90;;;;;;5084900;28;20205;-56
2021/07/03 11:57:39;;;;;;;2.73;1.73;;;20.40;99.90;;;;;;5101895;28;20272;-52
2021/07/03 12:00:07;;;;;;;2.50;1.97;;;20.40;99.90;;;;;;5094543;28;20541;-55
2021/07/03 12:02:36;;;;;;;3.20;2.33;;;20.40;99.90;;;;;;5102710;28;20209;-55
2021/07/03 12:05:04;;;;;;;2.20;1.60;;;20.40;99.90;;;;;;5097905;28;20221;-56
2021/07/03 12:07:31;;;;;;;3.07;1.90;;;20.40;99.90;;;;;;5094437;28;20224;-55
2021/07/03 12:10:02;;;;;;;1.53;1.43;;;20.50;99.90;;;;;;5089413;28;20224;-54
2021/07/03 12:12:28;;;;;;;2.77;2.00;;;20.60;99.90;;;;;;5098221;28;20221;-50
2021/07/03 12:15:01;;;;;;;3.00;1.80;;;20.70;99.90;;;;;;5102844;28;20189;-54
2021/07/03 12:17:28;;;;;;;3.03;2.07;;;20.70;99.90;;;;;;5087726;28;20197;-53
2021/07/03 12:20:08;;;;;;;2.83;1.90;;;20.80;99.90;;;;;;5104870;28;20254;-50
2021/07/03 12:22:35;;;;;;;2.83;2.10;;;20.90;99.90;;;;;;5096668;28;20209;-47
2021/07/03 12:25:14;;;;;;;2.70;1.67;;;21.00;99.90;;;;;;5089461;28;20292;-58
2021/07/03 12:27:40;;;;;;;2.27;2.17;;;20.90;99.90;;;;;;5094343;28;20214;-54
2021/07/03 12:30:09;;;;;;;1.77;1.67;;;21.00;99.90;;;;;;5102470;28;20201;-57
2021/07/03 12:32:35;;;;;;;1.63;1.53;;;21.40;99.90;;;;;;5091950;28;20888;-50
2021/07/03 12:35:12;;;;;;;1.70;1.53;;;21.60;99.90;;;;;;5104163;28;20574;-59
2021/07/03 12:37:39;;;;;;;2.00;1.80;;;21.80;99.90;;;;;;5094792;28;20283;-51
2021/07/03 12:40:16;;;;;;;4.72;1.98;;;21.70;99.90;;;;;;5076980;28;20212;-59
2021/07/03 12:42:46;;;;;;;2.08;1.90;;;21.60;99.90;;;;;;5103596;28;20301;-51
2021/07/03 12:45:12;;;;;;;2.33;2.07;;;21.40;99.90;;;;;;5097722;28;20550;-57